Nearby METAR Reports

 

EGQL - Leuchars Raf, United Kingdom
Distance from station: SW 11mi, 17km
Updated: 20/01/2019 00:50
Haze, Overcast
Haze, Overcast
 Wind from W
Wind: W 6 mph , 9 km/h
Temperature: 3°C
Wind Chill: 0°C
Dew Point: 1°C
Humidity: 87%
Barometer: 1012 hPa
Summary: Haze
Clouds: Overcast
Visibility: 4 miles , 6 km
Cloud details: Overcast 396 m
2019/01/20 00:50 EGQL 200050Z 26005KT 6000 HZ OVC013 03/01 Q1012 GRN
EGPN - Dundee/Riverside, United Kingdom
Distance from station: WSW 13mi, 20km
Updated: 19/01/2019 15:50
NOT Current
Mostly cloudy
Mostly cloudy
 Wind from WSW
Wind: WSW 3 mph , 6 km/h
Temperature: 4°C
Dew Point: 2°C
Humidity: 87%
Barometer: 1009 hPa
Clouds: Mostly cloudy
Visibility: 4 miles , 6 km
Cloud details: Mostly cloudy 671 m
2019/01/19 15:50 EGPN 191550Z 24003KT 6000 BKN022 04/02 Q1009
 
EGPH - Edinburgh Airpor, United Kingdom
Distance from station: SSW 46mi, 74km
Updated: 20/01/2019 00:50
Overcast
Overcast
 Wind from varies
Wind: varies 2 mph , 4 km/h
Temperature: 2°C
Dew Point: 1°C
Humidity: 93%
Barometer: 1012 hPa
Clouds: Overcast
Visibility: 6 miles , 10 km
Cloud details: Overcast 457 m
2019/01/20 00:50 EGPH 200050Z VRB02KT 9999 OVC015 02/01 Q1012
EGPD - Aberdeen/Dyce, United Kingdom
Distance from station: NNE 51mi, 82km
Updated: 20/01/2019 00:50
Overcast
Overcast
 Wind from SW
Wind: SW 8 mph , 13 km/h
Temperature: 2°C
Wind Chill: -1°C
Dew Point: 0°C
Humidity: 87%
Barometer: 1012 hPa
Clouds: Overcast
Visibility: 6 miles , 10 km
Cloud details: Overcast 457 m
2019/01/20 00:50 EGPD 200050Z AUTO 23007KT 9999 OVC015 02/00 Q1012